Time;durP1;ratioP1;P1;durP2;ratioP2;P2;SDS_P1;SDS_P2;PMS_P1;PMS_P2;Temp;Humidity;BMP_temperature;BMP_pressure;BME280_temperature;BME280_humidity;BME280_pressure;Samples;Min_cycle;Max_cycle;Signal;HPM_P1;HPM_P2
2022/04/08 00:00:02;;;;;;;3.20;2.17;;;;;;;11.89;75.23;98521.38;5557060;32;33473;-64
2022/04/08 00:03:06;;;;;;;3.78;2.28;;;;;;;11.87;75.47;98523.41;5570709;32;34354;-64
2022/04/08 00:06:10;;;;;;;3.72;2.10;;;;;;;11.81;75.90;98516.34;5557193;32;32568;-64
2022/04/08 00:09:14;;;;;;;4.15;2.20;;;;;;;11.67;76.61;98535.03;5557084;32;32735;-64
2022/04/08 00:12:16;;;;;;;3.67;2.55;;;;;;;11.65;76.75;98531.81;5570668;32;34224;-64
2022/04/08 00:15:19;;;;;;;4.05;2.37;;;;;;;11.75;76.12;98532.13;5557014;32;32792;-64
2022/04/08 00:18:22;;;;;;;3.22;2.20;;;;;;;11.87;75.82;98545.50;5570508;32;34928;-64
2022/04/08 00:21:25;;;;;;;3.92;2.15;;;;;;;11.81;76.00;98525.13;5571042;32;34139;-64
2022/04/08 00:24:28;;;;;;;4.40;1.90;;;;;;;11.87;75.70;98524.22;5570638;32;34878;-64
2022/04/08 00:27:31;;;;;;;3.80;2.42;;;;;;;11.86;75.90;98538.53;5570550;32;34856;-64
2022/04/08 00:30:34;;;;;;;4.37;2.58;;;;;;;11.88;75.80;98525.88;5570392;32;34269;-64
2022/04/08 00:33:37;;;;;;;4.55;2.08;;;;;;;12.03;74.96;98526.31;5570448;32;34293;-64
2022/04/08 00:36:40;;;;;;;3.20;2.17;;;;;;;12.07;74.46;98542.63;5570489;32;34227;-65
2022/04/08 00:39:42;;;;;;;3.60;2.35;;;;;;;12.02;75.19;98547.78;5570527;32;35424;-64
2022/04/08 00:42:45;;;;;;;2.35;1.80;;;;;;;12.12;74.55;98548.06;5570385;32;34967;-65
2022/04/08 00:45:47;;;;;;;2.92;1.80;;;;;;;12.26;71.28;98538.09;5570387;32;34161;-65
2022/04/08 00:48:50;;;;;;;4.70;1.85;;;;;;;12.30;71.27;98539.28;5570659;32;34142;-64
2022/04/08 00:51:53;;;;;;;2.53;1.92;;;;;;;12.31;71.74;98540.91;5556527;32;33487;-64
2022/04/08 00:54:56;;;;;;;3.12;1.92;;;;;;;12.25;72.91;98544.47;5556640;32;34308;-64
2022/04/08 00:58:01;;;;;;;3.22;1.98;;;;;;;12.10;73.93;98550.94;5570305;32;34243;-63
2022/04/08 01:01:04;;;;;;;4.45;1.90;;;;;;;12.04;74.58;98551.88;5570188;32;34809;-64
2022/04/08 01:04:07;;;;;;;4.18;2.12;;;;;;;11.97;75.76;98560.91;5556447;32;33538;-64
2022/04/08 01:07:10;;;;;;;3.00;2.08;;;;;;;11.87;75.70;98553.47;5570249;32;34310;-64
2022/04/08 01:10:12;;;;;;;4.18;2.33;;;;;;;11.74;77.12;98550.94;5569981;32;34213;-64
2022/04/08 01:13:16;;;;;;;4.47;2.55;;;;;;;11.74;76.97;98549.09;5570118;32;34595;-64
2022/04/08 01:16:19;;;;;;;3.55;2.30;;;;;;;11.66;77.71;98554.69;5570198;32;34146;-64
2022/04/08 01:19:22;;;;;;;6.55;2.70;;;;;;;11.66;77.45;98556.53;5570093;32;34566;-64
2022/04/08 01:22:25;;;;;;;4.85;2.50;;;;;;;11.55;78.69;98562.53;5556468;32;33496;-64
2022/04/08 01:25:28;;;;;;;5.18;2.15;;;;;;;11.45;79.36;98562.22;5569998;32;34170;-64
2022/04/08 01:28:31;;;;;;;5.00;2.62;;;;;;;11.42;79.40;98554.69;5556714;32;34606;-64
2022/04/08 01:31:34;;;;;;;3.00;2.15;;;;;;;11.37;80.13;98573.94;5570026;32;34608;-64
2022/04/08 01:34:36;;;;;;;5.75;2.70;;;;;;;11.28;81.03;98596.44;5556350;32;34239;-64
2022/04/08 01:37:39;;;;;;;3.30;2.40;;;;;;;11.26;80.71;98595.88;5570220;32;34797;-64
2022/04/08 01:40:42;;;;;;;3.83;2.50;;;;;;;11.30;80.98;98611.13;5569979;32;35603;-64
2022/04/08 01:43:44;;;;;;;5.50;2.58;;;;;;;11.33;80.96;98608.03;5570290;32;34796;-64
2022/04/08 01:46:47;;;;;;;3.87;2.58;;;;;;;11.33;80.89;98612.53;5569934;32;34847;-64
2022/04/08 01:49:51;;;;;;;3.85;2.58;;;;;;;11.32;80.76;98622.37;5570094;32;34495;-64
2022/04/08 01:52:53;;;;;;;5.28;2.42;;;;;;;11.34;81.01;98625.59;5556083;32;33345;-64
2022/04/08 01:55:56;;;;;;;4.43;2.65;;;;;;;11.31;81.79;98638.50;5569806;32;34985;-64
2022/04/08 01:58:58;;;;;;;4.35;2.17;;;;;;;11.33;81.47;98639.09;5555785;32;33769;-64
2022/04/08 02:02:02;;;;;;;3.70;2.17;;;;;;;11.53;79.52;98644.25;5569828;32;35483;-64
2022/04/08 02:05:06;;;;;;;3.20;2.00;;;;;;;11.69;76.33;98638.41;5555597;32;32803;-64
2022/04/08 02:08:09;;;;;;;3.72;2.30;;;;;;;11.97;73.70;98641.47;5569675;32;34631;-64
2022/04/08 02:11:11;;;;;;;4.53;2.20;;;;;;;11.94;74.27;98646.41;5569878;32;34134;-64
2022/04/08 02:14:15;;;;;;;2.25;1.75;;;;;;;11.81;75.29;98647.34;5569605;32;34076;-64
2022/04/08 02:17:18;;;;;;;2.97;1.67;;;;;;;11.80;74.75;98658.19;5569557;32;34180;-64
2022/04/08 02:20:21;;;;;;;5.05;1.90;;;;;;;11.90;73.93;98659.31;5554851;32;32897;-64
2022/04/08 02:23:23;;;;;;;3.65;1.95;;;;;;;12.00;73.31;98657.00;5569480;32;34311;-65
2022/04/08 02:26:28;;;;;;;2.62;1.70;;;;;;;12.12;72.67;98671.16;5569469;32;34649;-65
2022/04/08 02:29:30;;;;;;;3.05;2.10;;;;;;;12.16;72.82;98671.53;5569457;32;34070;-64
2022/04/08 02:32:33;;;;;;;3.05;1.80;;;;;;;12.06;73.75;98657.94;5555507;32;33995;-64
2022/04/08 02:35:36;;;;;;;3.05;2.10;;;;;;;11.99;74.15;98641.25;5569238;32;34230;-64
2022/04/08 02:38:39;;;;;;;7.50;2.30;;;;;;;11.88;74.72;98640.12;5569155;32;34337;-64
2022/04/08 02:41:41;;;;;;;2.75;1.98;;;;;;;11.68;75.98;98650.06;5569137;32;34246;-64
2022/04/08 02:44:44;;;;;;;4.40;2.22;;;;;;;11.52;75.89;98667.34;5569060;32;34114;-64
2022/04/08 02:47:47;;;;;;;5.12;2.15;;;;;;;11.62;75.04;98680.13;5569065;32;34387;-64
2022/04/08 02:50:50;;;;;;;3.67;1.95;;;;;;;11.64;75.20;98686.06;5568956;32;34351;-64
2022/04/08 02:53:52;;;;;;;3.62;2.10;;;;;;;11.61;74.71;98679.34;5569247;32;34469;-64
2022/04/08 02:56:55;;;;;;;2.47;2.00;;;;;;;11.54;75.66;98701.66;5569331;32;34907;-64
2022/04/08 03:00:00;;;;;;;3.97;2.05;;;;;;;11.58;73.83;98697.53;5555198;32;33365;-64
2022/04/08 03:03:03;;;;;;;3.03;1.95;;;;;;;11.57;75.29;98712.66;5568822;32;34260;-64
2022/04/08 03:06:06;;;;;;;2.65;1.73;;;;;;;11.73;74.39;98737.94;5569039;32;34579;-65
2022/04/08 03:09:09;;;;;;;2.92;1.73;;;;;;;11.92;71.81;98739.62;5568540;32;34092;-64
2022/04/08 03:12:11;;;;;;;2.40;1.12;;;;;;;12.13;70.17;98744.56;5568571;32;34206;-64
2022/04/08 03:15:14;;;;;;;2.17;1.40;;;;;;;12.35;68.80;98746.81;5568638;32;34213;-63
2022/04/08 03:18:17;;;;;;;1.35;0.88;;;;;;;12.41;69.11;98760.06;5568526;32;34283;-64
2022/04/08 03:21:20;;;;;;;1.45;0.82;;;;;;;12.67;68.14;98759.00;5568479;32;34552;-65
2022/04/08 03:24:22;;;;;;;1.27;0.80;;;;;;;12.71;67.90;98760.19;5568429;32;34220;-64
2022/04/08 03:27:26;;;;;;;1.20;0.80;;;;;;;12.74;68.30;98777.53;5568382;32;34803;-64
2022/04/08 03:30:31;;;;;;;0.93;0.70;;;;;;;12.70;68.72;98773.69;5568105;31;34155;-64
2022/04/08 03:33:34;;;;;;;2.30;0.80;;;;;;;12.66;69.14;98786.63;5570387;32;34545;-63
2022/04/08 03:36:37;;;;;;;1.55;0.75;;;;;;;12.62;69.47;98804.91;5571358;32;34237;-65
2022/04/08 03:39:40;;;;;;;1.58;0.70;;;;;;;12.63;69.80;98811.03;5570945;32;34322;-64
2022/04/08 03:42:42;;;;;;;1.17;0.80;;;;;;;12.50;71.34;98829.75;5571325;32;34105;-65
2022/04/08 03:45:45;;;;;;;0.90;0.70;;;;;;;12.44;72.53;98823.44;5570872;32;34137;-65
2022/04/08 03:48:47;;;;;;;1.12;0.57;;;;;;;12.23;74.31;98836.31;5557042;32;32799;-66
2022/04/08 03:51:50;;;;;;;2.05;0.60;;;;;;;12.02;77.41;98837.47;5571045;32;34209;-65
2022/04/08 03:54:55;;;;;;;3.37;0.70;;;;;;;11.85;80.37;98854.97;5570810;32;34552;-65
2022/04/08 03:57:57;;;;;;;2.47;0.60;;;;;;;11.68;82.72;98873.19;5570915;32;34206;-65
2022/04/08 04:01:00;;;;;;;1.40;0.60;;;;;;;11.56;85.80;98877.56;5571164;32;34178;-64
2022/04/08 04:04:06;;;;;;;0.82;0.50;;;;;;;11.47;87.88;98855.75;5557004;32;33629;-65
2022/04/08 04:07:08;;;;;;;2.87;0.70;;;;;;;11.45;90.47;98849.00;5570921;32;35455;-65
2022/04/08 04:10:11;;;;;;;0.60;0.50;;;;;;;11.32;91.66;98848.03;5570688;32;34719;-65
2022/04/08 04:13:15;;;;;;;2.70;0.60;;;;;;;11.11;92.59;98853.59;5570541;32;34703;-65
2022/04/08 04:16:18;;;;;;;0.60;0.47;;;;;;;11.05;92.98;98843.00;5570743;32;34293;-65
2022/04/08 04:19:20;;;;;;;0.70;0.50;;;;;;;10.96;92.81;98823.00;5557008;32;34778;-66
2022/04/08 04:22:23;;;;;;;1.10;0.50;;;;;;;10.86;91.48;98818.13;5570511;32;34130;-65
2022/04/08 04:25:28;;;;;;;1.77;0.50;;;;;;;10.79;91.37;98826.13;5570517;32;35049;-65
2022/04/08 04:28:31;;;;;;;0.40;0.30;;;;;;;10.80;91.73;98835.69;5570608;32;34310;-65
2022/04/08 04:31:33;;;;;;;1.75;0.45;;;;;;;10.97;84.97;98838.72;5543678;32;33434;-64
2022/04/08 04:34:38;;;;;;;0.82;0.40;;;;;;;11.08;79.46;98842.59;5570371;32;34853;-64
2022/04/08 04:37:40;;;;;;;0.95;0.30;;;;;;;11.06;77.01;98834.00;5570469;32;34368;-64
2022/04/08 04:40:43;;;;;;;0.45;0.40;;;;;;;11.14;73.40;98825.81;5556766;32;35426;-65
2022/04/08 04:43:46;;;;;;;0.93;0.40;;;;;;;11.20;72.14;98819.66;5543121;32;33703;-65
2022/04/08 04:46:49;;;;;;;1.62;0.50;;;;;;;11.08;71.20;98827.50;5570777;32;34308;-66
2022/04/08 04:49:51;;;;;;;1.25;0.55;;;;;;;10.81;73.12;98828.56;5570272;32;34163;-66
2022/04/08 04:52:54;;;;;;;0.90;0.40;;;;;;;10.71;70.76;98801.62;5556355;32;33041;-64
2022/04/08 04:55:58;;;;;;;2.40;0.30;;;;;;;10.62;71.82;98816.12;5556265;32;33596;-64
2022/04/08 04:59:01;;;;;;;0.98;0.45;;;;;;;10.77;68.24;98816.72;5570157;32;34179;-65
2022/04/08 05:02:04;;;;;;;1.83;0.65;;;;;;;11.12;65.28;98843.81;5570316;32;34200;-65
2022/04/08 05:05:08;;;;;;;3.00;0.95;;;;;;;10.87;67.71;98857.72;5570331;32;35078;-65
2022/04/08 05:08:10;;;;;;;3.08;0.55;;;;;;;10.76;66.21;98850.41;5570406;32;34847;-64
2022/04/08 05:11:15;;;;;;;1.17;0.57;;;;;;;11.12;63.11;98852.59;5570043;32;34212;-64
2022/04/08 05:14:22;;;;;;;1.37;0.57;;;;;;;11.43;58.20;98869.62;5569909;32;34179;-65
2022/04/08 05:17:25;;;;;;;0.93;0.47;;;;;;;11.62;55.49;98872.19;5569923;32;35573;-65
2022/04/08 05:20:27;;;;;;;0.85;0.40;;;;;;;11.73;53.41;98879.53;5569930;32;34853;-65
2022/04/08 05:23:31;;;;;;;1.50;0.50;;;;;;;11.77;52.89;98870.12;5569814;32;34168;-64
2022/04/08 05:26:35;;;;;;;1.37;0.50;;;;;;;11.90;49.93;98865.78;5555839;32;33993;-65
2022/04/08 05:29:38;;;;;;;1.98;0.40;;;;;;;11.83;52.46;98862.31;5569919;31;34484;-65
2022/04/08 05:32:40;;;;;;;0.90;0.40;;;;;;;11.74;50.62;98873.22;5556008;32;32650;-65
2022/04/08 05:35:43;;;;;;;0.80;0.50;;;;;;;11.36;52.71;98890.09;5569677;32;34411;-65
2022/04/08 05:38:46;;;;;;;1.55;0.40;;;;;;;11.08;55.26;98859.34;5556014;32;33732;-65
2022/04/08 05:41:49;;;;;;;1.25;0.50;;;;;;;11.01;55.79;98885.06;5569719;32;34240;-65
2022/04/08 05:44:52;;;;;;;1.98;0.40;;;;;;;10.76;56.00;98884.06;5569619;32;34235;-65
2022/04/08 05:47:54;;;;;;;1.37;0.50;;;;;;;10.88;53.93;98899.16;5555345;32;32648;-64
2022/04/08 05:50:57;;;;;;;2.42;0.60;;;;;;;11.28;52.41;98938.91;5569543;32;35317;-65
2022/04/08 05:54:00;;;;;;;1.95;0.60;;;;;;;11.54;50.16;98935.38;5569184;32;34283;-65
2022/04/08 05:57:03;;;;;;;1.52;0.85;;;;;;;11.66;50.43;98945.16;5554111;32;33943;-66
2022/04/08 06:00:09;;;;;;;2.65;1.00;;;;;;;11.69;49.05;98946.56;5569487;32;34868;-64
2022/04/08 06:03:12;;;;;;;1.70;0.43;;;;;;;11.69;49.63;98928.78;5542871;32;32790;-65
2022/04/08 06:06:14;;;;;;;1.65;0.88;;;;;;;11.67;49.14;98936.13;5555549;32;33674;-66
2022/04/08 06:09:17;;;;;;;1.67;0.50;;;;;;;11.55;49.75;98937.00;5555842;32;32704;-64
2022/04/08 06:12:20;;;;;;;9.02;0.88;;;;;;;11.60;48.96;98977.03;5569028;32;34690;-64
2022/04/08 06:15:24;;;;;;;3.53;1.25;;;;;;;11.80;47.43;98983.16;5555061;32;33482;-65
2022/04/08 06:18:27;;;;;;;2.47;0.50;;;;;;;11.86;48.23;99002.75;5554347;32;34130;-65
2022/04/08 06:21:30;;;;;;;3.03;0.75;;;;;;;12.00;45.95;98999.03;5569052;32;34317;-65
2022/04/08 06:24:32;;;;;;;5.53;0.90;;;;;;;12.10;46.13;98997.53;5555299;32;33059;-65
2022/04/08 06:27:36;;;;;;;1.77;0.47;;;;;;;12.08;45.29;99001.44;5555494;32;32605;-65
2022/04/08 06:30:41;;;;;;;5.50;0.70;;;;;;;12.01;47.21;98992.66;5542189;32;33228;-64
2022/04/08 06:33:44;;;;;;;5.45;0.52;;;;;;;11.93;46.12;98988.41;5554829;32;33657;-64
2022/04/08 06:36:47;;;;;;;1.10;0.50;;;;;;;11.88;46.03;98996.19;5554656;32;34087;-64
2022/04/08 06:39:49;;;;;;;3.03;0.57;;;;;;;11.93;45.54;98999.03;5568862;32;34200;-65
2022/04/08 06:42:57;;;;;;;1.00;0.50;;;;;;;11.91;45.42;98993.09;5568927;32;34217;-64
2022/04/08 06:46:00;;;;;;;2.03;0.60;;;;;;;11.92;46.16;99017.84;5568918;32;34556;-64
2022/04/08 06:49:02;;;;;;;2.60;0.55;;;;;;;11.97;45.98;99004.75;5568768;32;34189;-64
2022/04/08 06:52:06;;;;;;;3.50;0.73;;;;;;;12.15;43.79;99031.47;5568405;32;34302;-65
2022/04/08 06:55:09;;;;;;;3.17;0.68;;;;;;;12.16;43.23;99022.47;5568402;32;34146;-64
2022/04/08 06:58:12;;;;;;;3.00;0.65;;;;;;;12.16;43.29;99031.25;5568686;32;34480;-65
2022/04/08 07:01:15;;;;;;;4.43;0.80;;;;;;;12.05;45.05;99036.44;5554771;32;32570;-65
2022/04/08 07:04:18;;;;;;;2.33;0.55;;;;;;;12.05;44.85;99050.50;5568560;32;34406;-65
2022/04/08 07:07:20;;;;;;;5.35;0.80;;;;;;;12.18;42.98;99054.97;5555606;32;32945;-66
2022/04/08 07:10:24;;;;;;;1.85;0.95;;;;;;;12.09;43.26;99049.09;5571011;32;34226;-65
2022/04/08 07:13:26;;;;;;;4.07;1.02;;;;;;;12.10;44.44;99063.19;5570916;32;34301;-67
2022/04/08 07:16:30;;;;;;;3.05;0.60;;;;;;;12.13;43.47;99065.44;5556892;32;33715;-66
2022/04/08 07:19:33;;;;;;;5.00;1.00;;;;;;;12.28;43.20;99073.97;5556966;32;32843;-65
2022/04/08 07:22:36;;;;;;;2.75;0.70;;;;;;;12.31;43.33;99078.03;5571222;32;34242;-65
2022/04/08 07:25:39;;;;;;;4.68;0.60;;;;;;;12.39;42.96;99065.31;5570987;32;34160;-65
2022/04/08 07:28:43;;;;;;;1.92;0.40;;;;;;;12.53;42.81;99080.22;5570924;32;35240;-65
2022/04/08 07:31:46;;;;;;;2.37;0.50;;;;;;;12.70;42.28;99090.34;5571042;32;34948;-65
2022/04/08 07:34:52;;;;;;;2.80;0.77;;;;;;;12.78;42.17;99119.38;5556767;32;34317;-65
2022/04/08 07:37:55;;;;;;;3.58;0.70;;;;;;;12.74;42.27;99120.81;5543727;32;33066;-64
2022/04/08 07:40:58;;;;;;;2.47;0.62;;;;;;;12.83;41.92;99112.38;5570918;32;34821;-65
2022/04/08 07:44:00;;;;;;;3.37;0.82;;;;;;;12.85;42.11;99110.31;5557121;32;34140;-65
2022/04/08 07:47:03;;;;;;;0.65;0.30;;;;;;;12.82;40.59;99123.25;5570896;32;34352;-65
2022/04/08 07:50:14;;;;;;;3.28;0.50;;;;;;;12.81;39.61;99116.28;5556554;32;32756;-66
2022/04/08 07:53:17;;;;;;;2.00;0.45;;;;;;;12.91;39.32;99119.31;5557186;32;34795;-65
2022/04/08 07:56:19;;;;;;;1.50;0.43;;;;;;;12.79;38.98;99121.81;5570642;32;34609;-64
2022/04/08 07:59:22;;;;;;;2.85;0.80;;;;;;;12.81;39.56;99137.59;5570450;32;34180;-64
2022/04/08 08:02:26;;;;;;;1.30;0.47;;;;;;;12.86;39.72;99133.25;5570631;32;34506;-65
2022/04/08 08:05:31;;;;;;;3.40;0.62;;;;;;;12.97;38.70;99118.47;5570660;32;35386;-64
2022/04/08 08:08:34;;;;;;;4.65;0.57;;;;;;;12.99;38.57;99119.06;5570470;32;34245;-65
2022/04/08 08:11:37;;;;;;;5.93;0.60;;;;;;;12.93;38.28;99133.19;5570250;32;34181;-65
2022/04/08 08:14:39;;;;;;;5.32;0.57;;;;;;;12.81;37.91;99113.62;5570376;32;34180;-64
2022/04/08 08:17:42;;;;;;;1.25;0.50;;;;;;;12.57;38.93;99125.81;5556314;32;32958;-65
2022/04/08 08:20:45;;;;;;;2.50;0.50;;;;;;;12.52;38.54;99118.47;5569896;32;34263;-64
2022/04/08 08:23:48;;;;;;;1.15;0.40;;;;;;;12.58;39.00;99141.59;5570448;32;34284;-65
2022/04/08 08:26:50;;;;;;;2.75;0.45;;;;;;;12.71;38.11;99129.22;5556714;32;32792;-64
2022/04/08 08:29:53;;;;;;;1.33;0.60;;;;;;;12.70;37.74;99122.28;5556360;32;32733;-65
2022/04/08 08:32:57;;;;;;;2.00;0.62;;;;;;;12.76;38.36;99143.53;5556577;32;34164;-64
2022/04/08 08:36:00;;;;;;;1.67;0.70;;;;;;;12.91;38.70;99162.72;5555895;32;33768;-65
2022/04/08 08:39:03;;;;;;;3.72;0.40;;;;;;;13.22;38.53;99179.78;5556527;32;32936;-64
2022/04/08 08:42:09;;;;;;;0.52;0.30;;;;;;;13.19;37.54;99196.19;5570151;32;34275;-64
2022/04/08 08:45:13;;;;;;;1.25;0.40;;;;;;;13.16;34.63;99197.44;5570102;32;34189;-64
2022/04/08 08:48:16;;;;;;;5.10;0.60;;;;;;;13.20;33.67;99188.00;5569951;31;34891;-64
2022/04/08 08:51:20;;;;;;;1.62;0.40;;;;;;;13.10;33.79;99174.28;5556457;32;33879;-65
2022/04/08 08:54:23;;;;;;;0.73;0.45;;;;;;;13.18;34.03;99210.53;5556392;32;33709;-66
2022/04/08 08:57:25;;;;;;;0.93;0.32;;;;;;;13.33;33.32;99203.06;5556338;32;34846;-64
2022/04/08 09:00:28;;;;;;;2.08;0.70;;;;;;;13.61;32.27;99202.69;5570091;32;35410;-64
2022/04/08 09:03:31;;;;;;;1.75;0.25;;;;;;;13.74;32.34;99211.41;5569969;32;34264;-64
2022/04/08 09:06:41;;;;;;;0.50;0.30;;;;;;;13.63;31.73;99204.12;5556399;32;34143;-65
2022/04/08 09:09:50;;;;;;;2.80;0.50;;;;;;;13.48;32.32;99224.91;5555642;32;33306;-65
2022/04/08 09:12:55;;;;;;;1.52;0.50;;;;;;;13.43;32.83;99233.53;5556103;32;32841;-65
2022/04/08 09:16:00;;;;;;;1.95;0.57;;;;;;;13.56;33.35;99242.47;5556291;32;35583;-65
2022/04/08 09:19:10;;;;;;;1.58;0.47;;;;;;;13.32;33.81;99223.56;5555734;32;33057;-67
2022/04/08 09:22:13;;;;;;;2.80;0.70;;;;;;;13.45;34.27;99228.84;5543018;32;32949;-65
2022/04/08 09:25:16;;;;;;;0.80;0.40;;;;;;;13.70;34.93;99236.84;5556222;32;32681;-64
2022/04/08 09:28:20;;;;;;;2.15;0.68;;;;;;;14.02;34.79;99234.16;5569847;32;34945;-64
2022/04/08 09:31:23;;;;;;;0.98;0.40;;;;;;;14.45;34.81;99248.38;5548816;32;33180;-64
2022/04/08 09:34:29;;;;;;;4.22;0.45;;;;;;;14.04;34.49;99243.56;5549391;32;33007;-64
2022/04/08 09:37:32;;;;;;;2.60;0.37;;;;;;;14.30;34.30;99240.69;5549833;32;34175;-65
2022/04/08 09:40:42;;;;;;;1.52;0.45;;;;;;;14.33;34.66;99244.75;5549078;32;33079;-65
2022/04/08 09:43:46;;;;;;;1.77;0.50;;;;;;;14.70;34.33;99254.50;5551230;32;34972;-65
2022/04/08 09:46:50;;;;;;;1.73;0.40;;;;;;;15.33;32.36;99264.84;5550622;32;34855;-67
2022/04/08 09:49:54;;;;;;;2.75;0.70;;;;;;;15.48;31.81;99262.59;5549179;32;33330;-65
2022/04/08 09:52:58;;;;;;;1.17;0.50;;;;;;;15.53;32.10;99272.62;5549200;32;32620;-65
2022/04/08 09:56:01;;;;;;;1.25;0.60;;;;;;;15.38;32.01;99266.84;5548835;32;32768;-67
2022/04/08 09:59:16;;;;;;;2.20;0.70;;;;;;;15.48;31.69;99275.94;5549903;32;34929;-66
2022/04/08 10:02:41;;;;;;;1.95;0.57;;;;;;;14.98;31.82;99248.63;5537875;32;33154;-66
2022/04/08 10:05:45;;;;;;;2.42;0.50;;;;;;;14.60;32.95;99235.50;5548837;32;32572;-66
2022/04/08 10:08:49;;;;;;;1.67;0.50;;;;;;;14.88;32.11;99239.50;5549813;32;34856;-66
2022/04/08 10:11:55;;;;;;;2.90;0.60;;;;;;;15.23;32.30;99241.31;5550032;32;34347;-66
2022/04/08 10:15:00;;;;;;;2.58;0.75;;;;;;;15.14;31.70;99250.69;5550035;32;34230;-65
2022/04/08 10:18:05;;;;;;;1.05;0.50;;;;;;;15.20;31.72;99254.31;5549860;32;34912;-66
2022/04/08 10:21:10;;;;;;;1.52;0.50;;;;;;;15.29;31.46;99258.31;5548790;32;33173;-66
2022/04/08 10:24:15;;;;;;;0.73;0.43;;;;;;;15.61;31.47;99250.91;5549864;32;34289;-65
2022/04/08 10:27:28;;;;;;;2.12;0.80;;;;;;;15.55;31.71;99262.50;5549674;32;34284;-66
2022/04/08 10:30:48;;;;;;;1.52;0.45;;;;;;;15.88;31.48;99264.69;5548414;32;32863;-65
2022/04/08 10:34:01;;;;;;;2.72;0.55;;;;;;;16.44;30.70;99275.72;5549420;32;35316;-67
2022/04/08 10:37:21;;;;;;;1.65;0.70;;;;;;;17.09;29.16;99259.47;5549619;32;34322;-66
2022/04/08 10:40:34;;;;;;;0.50;0.40;;;;;;;16.27;29.82;99271.28;5535789;32;32778;-66
2022/04/08 10:43:43;;;;;;;3.95;0.60;;;;;;;16.73;29.14;99257.94;5548564;32;34286;-66
2022/04/08 10:46:51;;;;;;;0.60;0.30;;;;;;;16.86;29.04;99252.31;5548497;32;32872;-67
2022/04/08 10:50:04;;;;;;;0.98;0.43;;;;;;;17.65;27.99;99255.25;5548099;32;32689;-66
2022/04/08 10:53:13;;;;;;;2.37;0.50;;;;;;;17.18;28.89;99243.88;5549059;32;34140;-66
2022/04/08 10:56:16;;;;;;;1.12;0.50;;;;;;;16.76;29.50;99262.00;5547776;32;33005;-67
2022/04/08 10:59:27;;;;;;;0.82;0.30;;;;;;;16.40;29.39;99245.13;5549593;32;34490;-66
2022/04/08 11:02:38;;;;;;;1.23;0.50;;;;;;;16.89;28.84;99254.50;5548209;32;34132;-67
2022/04/08 11:05:41;;;;;;;2.22;0.43;;;;;;;17.49;28.34;99253.28;5547970;32;34405;-67
2022/04/08 11:08:44;;;;;;;3.03;0.40;;;;;;;16.51;29.61;99244.28;5547726;32;33826;-67
2022/04/08 11:11:52;;;;;;;1.70;0.40;;;;;;;16.26;30.43;99250.94;5548974;32;34056;-65
2022/04/08 11:14:57;;;;;;;1.00;0.43;;;;;;;16.03;31.76;99241.00;5548798;32;34333;-66
2022/04/08 11:18:00;;;;;;;1.00;0.40;;;;;;;15.79;32.24;99242.81;5548835;32;34218;-65
2022/04/08 11:21:03;;;;;;;0.88;0.60;;;;;;;16.17;31.91;99252.31;5535120;32;32922;-66
2022/04/08 11:24:07;;;;;;;1.95;0.55;;;;;;;15.86;32.59;99250.75;5548189;32;34883;-67
2022/04/08 11:27:10;;;;;;;1.40;0.40;;;;;;;15.92;32.27;99250.66;5547774;32;32689;-66
2022/04/08 11:30:15;;;;;;;2.25;0.70;;;;;;;15.29;33.63;99268.19;5553086;32;33740;-66
2022/04/08 11:33:23;;;;;;;;;;;;;;;15.21;33.17;99261.28;5568441;32;34294;-65
2022/04/08 11:36:26;;;;;;;1.73;0.47;;;;;;;15.07;33.62;99254.47;5554214;32;36850;-66
2022/04/08 11:39:32;;;;;;;0.75;0.50;;;;;;;15.26;33.86;99250.72;5568317;32;34304;-66
2022/04/08 11:42:35;;;;;;;4.30;0.57;;;;;;;15.15;34.15;99248.84;5568250;32;34540;-66
2022/04/08 11:45:37;;;;;;;1.20;0.40;;;;;;;15.28;33.90;99251.34;5553924;32;32796;-66
2022/04/08 11:48:40;;;;;;;2.65;0.80;;;;;;;15.12;33.96;99242.06;5553889;32;34153;-66
2022/04/08 11:51:45;;;;;;;4.55;0.50;;;;;;;15.17;34.60;99247.56;5554276;32;32591;-68
2022/04/08 11:54:48;;;;;;;2.65;0.70;;;;;;;15.50;34.02;99238.28;5569164;32;34324;-66
2022/04/08 11:58:18;;;;;;;2.15;0.60;;;;;;;15.48;34.29;99235.03;5556542;32;33005;-66
2022/04/08 12:01:34;;;;;;;2.00;0.50;;;;;;;15.63;34.92;99236.28;5556327;32;33907;-66
2022/04/08 12:04:40;;;;;;;0.70;0.50;;;;;;;15.65;34.83;99231.50;5570330;32;35012;-65
2022/04/08 12:07:44;;;;;;;1.30;0.50;;;;;;;15.45;35.01;99236.28;5556541;32;33657;-66
2022/04/08 12:10:57;;;;;;;2.12;0.50;;;;;;;15.81;35.00;99237.25;5543492;32;33405;-67
2022/04/08 12:13:59;;;;;;;1.80;0.70;;;;;;;15.96;34.85;99237.63;5556672;32;32551;-67
2022/04/08 12:17:02;;;;;;;2.60;0.70;;;;;;;16.51;34.27;99236.25;5570598;32;35414;-67
2022/04/08 12:20:15;;;;;;;2.60;0.40;;;;;;;17.27;32.92;99221.81;5570212;32;34213;-68
2022/04/08 12:23:19;;;;;;;1.65;0.70;;;;;;;18.16;31.59;99224.69;5556762;32;32692;-68
2022/04/08 12:26:37;;;;;;;2.08;0.70;;;;;;;17.75;32.48;99213.31;5556758;32;34298;-67
2022/04/08 12:29:40;;;;;;;1.40;0.47;;;;;;;17.17;33.69;99205.53;5570348;32;34300;-69
2022/04/08 12:32:43;;;;;;;3.35;0.52;;;;;;;18.09;32.52;99202.59;5570509;32;34279;-66
2022/04/08 12:35:47;;;;;;;2.65;0.80;;;;;;;18.82;31.80;99193.44;5570342;32;34217;-68
2022/04/08 12:38:50;;;;;;;3.75;0.80;;;;;;;19.23;31.60;99192.84;5556566;32;34454;-68
2022/04/08 12:41:59;;;;;;;1.02;0.55;;;;;;;18.32;32.41;99178.22;5570701;32;35072;-68
2022/04/08 12:45:03;;;;;;;2.10;0.60;;;;;;;18.17;33.69;99175.31;5543358;32;34442;-66
2022/04/08 12:48:07;;;;;;;1.10;0.77;;;;;;;17.85;32.73;99174.28;5555983;32;33026;-68
2022/04/08 12:51:12;;;;;;;0.88;0.60;;;;;;;17.54;33.86;99160.34;5570635;32;35434;-68
2022/04/08 12:54:15;;;;;;;0.80;0.60;;;;;;;17.68;34.05;99150.13;5570299;32;34184;-67
2022/04/08 12:57:21;;;;;;;3.00;0.62;;;;;;;17.91;33.20;99149.97;5556429;32;33017;-67
2022/04/08 13:00:44;;;;;;;1.85;0.73;;;;;;;17.38;34.46;99150.41;5570354;32;34278;-68
2022/04/08 13:03:47;;;;;;;3.58;0.62;;;;;;;17.74;34.23;99155.34;5570452;32;34539;-68
2022/04/08 13:06:56;;;;;;;1.60;0.60;;;;;;;17.25;35.21;99143.50;5555873;32;33922;-67
2022/04/08 13:09:59;;;;;;;1.05;0.50;;;;;;;16.78;36.47;99144.72;5570241;32;34827;-67
2022/04/08 13:13:02;;;;;;;2.78;0.68;;;;;;;16.85;36.60;99146.22;5569975;32;34224;-67
2022/04/08 13:16:05;;;;;;;1.67;0.70;;;;;;;16.94;36.90;99142.09;5555473;32;33803;-67
2022/04/08 13:19:08;;;;;;;1.95;0.62;;;;;;;18.21;34.46;99133.50;5555968;32;34274;-67
2022/04/08 13:22:14;;;;;;;1.50;0.70;;;;;;;22.20;28.23;99129.00;5556626;32;34433;-66
2022/04/08 13:25:17;;;;;;;6.72;0.70;;;;;;;20.09;31.58;99122.84;5569942;32;35415;-66
2022/04/08 13:28:20;;;;;;;1.83;0.60;;;;;;;18.54;34.22;99122.69;5555742;32;33608;-67
2022/04/08 13:31:23;;;;;;;1.62;0.80;;;;;;;18.26;34.89;99117.47;5555980;32;32716;-67
2022/04/08 13:34:26;;;;;;;3.72;0.80;;;;;;;18.41;35.11;99104.25;5569727;32;34206;-67
2022/04/08 13:37:39;;;;;;;1.95;0.82;;;;;;;20.21;31.30;99099.22;5556647;32;34707;-67
2022/04/08 13:40:41;;;;;;;0.65;0.50;;;;;;;20.60;30.53;99086.22;5555411;32;32938;-67
2022/04/08 13:43:46;;;;;;;4.12;0.75;;;;;;;19.93;32.14;99078.84;5555119;32;32684;-67
2022/04/08 13:46:49;;;;;;;1.77;0.80;;;;;;;19.41;32.57;99089.50;5569417;32;34312;-66
2022/04/08 13:49:52;;;;;;;1.48;0.82;;;;;;;18.86;33.71;99085.19;5555581;32;33732;-67
2022/04/08 13:52:54;;;;;;;1.55;0.70;;;;;;;18.19;35.24;99085.44;5569388;32;34205;-68
2022/04/08 13:55:57;;;;;;;2.70;0.80;;;;;;;17.38;36.40;99083.38;5555455;32;34219;-66
2022/04/08 13:59:00;;;;;;;2.78;0.80;;;;;;;16.55;38.21;99086.69;5569399;32;34852;-70
2022/04/08 14:02:03;;;;;;;1.45;0.62;;;;;;;16.53;38.69;99075.38;5569004;32;34935;-67
2022/04/08 14:05:07;;;;;;;2.53;0.80;;;;;;;16.79;38.36;99068.69;5555409;32;34639;-66
2022/04/08 14:08:12;;;;;;;3.42;0.90;;;;;;;16.95;37.81;99065.22;5541831;32;33929;-66
2022/04/08 14:11:15;;;;;;;1.98;0.90;;;;;;;16.71;38.40;99055.66;5568549;32;34207;-66
2022/04/08 14:14:18;;;;;;;3.25;0.73;;;;;;;16.46;38.85;99056.78;5555192;32;34326;-67
2022/04/08 14:17:21;;;;;;;4.18;0.70;;;;;;;16.93;37.99;99048.59;5553689;32;33021;-67
2022/04/08 14:20:24;;;;;;;0.73;0.62;;;;;;;17.29;37.21;99039.28;5568884;32;34489;-66
2022/04/08 14:23:26;;;;;;;2.05;0.80;;;;;;;17.80;36.88;99030.97;5553609;32;32895;-67
2022/04/08 14:26:29;;;;;;;3.45;1.00;;;;;;;17.90;36.63;99027.63;5568260;32;34937;-67